sensor_id;sensor_type;location;lat;lon;timestamp;pressure;altitude;pressure_sealevel;temperature;humidity
56040;BME280;43937;41.366;2.072;2023-11-21T00:00:35;100730.34;;;17.50;74.05
56040;BME280;43937;41.366;2.072;2023-11-21T00:03:01;100720.63;;;17.61;73.40
56040;BME280;43937;41.366;2.072;2023-11-21T00:05:27;100737.31;;;17.73;73.09
56040;BME280;43937;41.366;2.072;2023-11-21T00:07:52;100722.50;;;17.74;72.18
56040;BME280;43937;41.366;2.072;2023-11-21T00:10:18;100710.19;;;17.70;72.64
56040;BME280;43937;41.366;2.072;2023-11-21T00:15:35;100708.31;;;17.77;72.79
56040;BME280;43937;41.366;2.072;2023-11-21T00:23:51;100702.38;;;17.87;71.02
56040;BME280;43937;41.366;2.072;2023-11-21T00:28:36;100663.41;;;17.76;71.31
56040;BME280;43937;41.366;2.072;2023-11-21T00:33:43;100668.47;;;17.93;70.55
56040;BME280;43937;41.366;2.072;2023-11-21T00:39:52;100685.81;;;18.06;70.65
56040;BME280;43937;41.366;2.072;2023-11-21T00:42:18;100669.28;;;18.06;70.39
56040;BME280;43937;41.366;2.072;2023-11-21T00:45:06;100639.22;;;17.98;70.20
56040;BME280;43937;41.366;2.072;2023-11-21T00:47:32;100657.38;;;18.06;69.98
56040;BME280;43937;41.366;2.072;2023-11-21T00:49:57;100661.84;;;18.07;70.20
56040;BME280;43937;41.366;2.072;2023-11-21T00:54:39;100652.94;;;18.12;70.71
56040;BME280;43937;41.366;2.072;2023-11-21T01:00:28;100665.78;;;18.24;69.99
56040;BME280;43937;41.366;2.072;2023-11-21T01:06:21;100665.19;;;18.22;70.94
56040;BME280;43937;41.366;2.072;2023-11-21T01:11:22;100652.75;;;18.00;71.13
56040;BME280;43937;41.366;2.072;2023-11-21T01:15:51;100646.47;;;17.66;72.10
56040;BME280;43937;41.366;2.072;2023-11-21T01:19:02;100641.41;;;17.63;72.61
56040;BME280;43937;41.366;2.072;2023-11-21T01:21:27;100644.78;;;17.78;72.11
56040;BME280;43937;41.366;2.072;2023-11-21T01:23:53;100625.75;;;17.70;72.46
56040;BME280;43937;41.366;2.072;2023-11-21T01:28:24;100622.31;;;17.81;72.08
56040;BME280;43937;41.366;2.072;2023-11-21T01:33:26;100636.25;;;17.93;72.11
56040;BME280;43937;41.366;2.072;2023-11-21T01:38:40;100624.03;;;17.82;73.03
56040;BME280;43937;41.366;2.072;2023-11-21T01:46:57;100620.25;;;17.57;76.99
56040;BME280;43937;41.366;2.072;2023-11-21T01:51:11;100625.13;;;17.55;78.33
56040;BME280;43937;41.366;2.072;2023-11-21T01:57:25;100615.41;;;17.46;76.20
56040;BME280;43937;41.366;2.072;2023-11-21T02:06:27;100593.38;;;17.46;76.63
56040;BME280;43937;41.366;2.072;2023-11-21T02:15:14;100602.03;;;17.62;78.69
56040;BME280;43937;41.366;2.072;2023-11-21T02:19:57;100596.16;;;17.52;80.41
56040;BME280;43937;41.366;2.072;2023-11-21T02:22:22;100583.66;;;17.50;81.94
56040;BME280;43937;41.366;2.072;2023-11-21T02:24:51;100571.88;;;17.16;83.93
56040;BME280;43937;41.366;2.072;2023-11-21T02:27:17;100575.88;;;17.20;84.09
56040;BME280;43937;41.366;2.072;2023-11-21T02:30:34;100577.91;;;17.51;83.27
56040;BME280;43937;41.366;2.072;2023-11-21T02:34:12;100568.44;;;17.40;83.41
56040;BME280;43937;41.366;2.072;2023-11-21T02:39:34;100557.91;;;17.31;84.19
56040;BME280;43937;41.366;2.072;2023-11-21T02:41:59;100560.81;;;17.49;83.87
56040;BME280;43937;41.366;2.072;2023-11-21T02:49:10;100569.84;;;17.63;83.44
56040;BME280;43937;41.366;2.072;2023-11-21T02:51:37;100556.16;;;17.43;82.41
56040;BME280;43937;41.366;2.072;2023-11-21T02:56:25;100538.63;;;17.37;81.36
56040;BME280;43937;41.366;2.072;2023-11-21T03:01:15;100543.72;;;17.34;79.99
56040;BME280;43937;41.366;2.072;2023-11-21T03:03:42;100540.72;;;17.35;79.36
56040;BME280;43937;41.366;2.072;2023-11-21T03:06:07;100548.34;;;17.33;79.27
56040;BME280;43937;41.366;2.072;2023-11-21T03:09:33;100531.00;;;17.33;78.59
56040;BME280;43937;41.366;2.072;2023-11-21T03:14:21;100531.84;;;17.33;78.42
56040;BME280;43937;41.366;2.072;2023-11-21T03:21:17;100519.19;;;17.19;77.70
56040;BME280;43937;41.366;2.072;2023-11-21T03:25:27;100528.91;;;17.28;77.35
56040;BME280;43937;41.366;2.072;2023-11-21T03:30:32;100501.88;;;17.05;76.49
56040;BME280;43937;41.366;2.072;2023-11-21T03:32:57;100524.31;;;17.02;72.36
56040;BME280;43937;41.366;2.072;2023-11-21T03:36:18;100540.81;;;16.89;67.66
56040;BME280;43937;41.366;2.072;2023-11-21T03:40:05;100532.38;;;16.77;66.51
56040;BME280;43937;41.366;2.072;2023-11-21T03:42:33;100536.81;;;16.78;63.52
56040;BME280;43937;41.366;2.072;2023-11-21T03:48:59;100489.44;;;16.56;61.24
56040;BME280;43937;41.366;2.072;2023-11-21T03:51:24;100508.69;;;16.56;60.36
56040;BME280;43937;41.366;2.072;2023-11-21T03:54:49;100517.56;;;16.65;58.66
56040;BME280;43937;41.366;2.072;2023-11-21T03:57:15;100503.41;;;16.61;58.22
56040;BME280;43937;41.366;2.072;2023-11-21T03:59:41;100505.28;;;16.61;57.47
56040;BME280;43937;41.366;2.072;2023-11-21T04:02:07;100501.91;;;16.45;56.75
56040;BME280;43937;41.366;2.072;2023-11-21T04:04:43;100515.44;;;16.40;56.69
56040;BME280;43937;41.366;2.072;2023-11-21T04:07:09;100526.63;;;16.45;56.00
56040;BME280;43937;41.366;2.072;2023-11-21T04:15:14;100521.53;;;16.22;54.97
56040;BME280;43937;41.366;2.072;2023-11-21T04:17:41;100516.25;;;16.21;54.56
56040;BME280;43937;41.366;2.072;2023-11-21T04:20:07;100514.34;;;16.15;54.86
56040;BME280;43937;41.366;2.072;2023-11-21T04:23:39;100517.09;;;16.15;54.30
56040;BME280;43937;41.366;2.072;2023-11-21T04:26:05;100517.50;;;15.98;54.32
56040;BME280;43937;41.366;2.072;2023-11-21T04:30:57;100520.59;;;15.82;54.80
56040;BME280;43937;41.366;2.072;2023-11-21T04:35:48;100511.09;;;15.85;54.41
56040;BME280;43937;41.366;2.072;2023-11-21T04:44:08;100525.50;;;15.93;54.68
56040;BME280;43937;41.366;2.072;2023-11-21T04:46:34;100523.34;;;15.82;55.14
56040;BME280;43937;41.366;2.072;2023-11-21T04:48:59;100534.38;;;15.95;54.56
56040;BME280;43937;41.366;2.072;2023-11-21T04:56:01;100519.88;;;15.67;54.94
56040;BME280;43937;41.366;2.072;2023-11-21T04:59:11;100519.97;;;15.80;54.55
56040;BME280;43937;41.366;2.072;2023-11-21T05:06:28;100532.44;;;15.83;54.51
56040;BME280;43937;41.366;2.072;2023-11-21T05:11:25;100529.59;;;15.63;54.92
56040;BME280;43937;41.366;2.072;2023-11-21T05:13:50;100512.31;;;15.69;54.35
56040;BME280;43937;41.366;2.072;2023-11-21T05:25:11;100513.28;;;15.54;55.06
56040;BME280;43937;41.366;2.072;2023-11-21T05:34:44;100564.91;;;15.38;55.19
56040;BME280;43937;41.366;2.072;2023-11-21T05:37:09;100575.56;;;15.61;54.75
56040;BME280;43937;41.366;2.072;2023-11-21T05:39:35;100565.13;;;15.71;54.94
56040;BME280;43937;41.366;2.072;2023-11-21T05:53:21;100628.16;;;16.06;52.80
56040;BME280;43937;41.366;2.072;2023-11-21T06:00:25;100620.69;;;15.86;53.20
56040;BME280;43937;41.366;2.072;2023-11-21T06:06:46;100608.19;;;15.77;52.43
56040;BME280;43937;41.366;2.072;2023-11-21T06:09:31;100620.50;;;15.94;52.56
56040;BME280;43937;41.366;2.072;2023-11-21T06:13:12;100627.31;;;16.05;51.91
56040;BME280;43937;41.366;2.072;2023-11-21T06:19:24;100627.72;;;16.02;51.87
56040;BME280;43937;41.366;2.072;2023-11-21T06:23:22;100604.44;;;15.91;51.74
56040;BME280;43937;41.366;2.072;2023-11-21T06:26:53;100652.22;;;16.03;51.85
56040;BME280;43937;41.366;2.072;2023-11-21T06:34:06;100675.94;;;16.18;51.73
56040;BME280;43937;41.366;2.072;2023-11-21T06:37:20;100689.66;;;16.11;51.69
56040;BME280;43937;41.366;2.072;2023-11-21T06:39:51;100697.34;;;16.36;51.33
56040;BME280;43937;41.366;2.072;2023-11-21T06:43:30;100689.09;;;16.29;52.03
56040;BME280;43937;41.366;2.072;2023-11-21T06:45:58;100668.81;;;16.30;57.52
56040;BME280;43937;41.366;2.072;2023-11-21T06:51:29;100668.22;;;15.93;71.98
56040;BME280;43937;41.366;2.072;2023-11-21T06:56:16;100639.84;;;15.45;78.78
56040;BME280;43937;41.366;2.072;2023-11-21T06:58:42;100694.56;;;15.53;82.75
56040;BME280;43937;41.366;2.072;2023-11-21T07:01:08;100647.06;;;14.96;84.17
56040;BME280;43937;41.366;2.072;2023-11-21T07:03:46;100691.41;;;15.28;85.79
56040;BME280;43937;41.366;2.072;2023-11-21T07:06:12;100699.09;;;15.39;85.82
56040;BME280;43937;41.366;2.072;2023-11-21T07:08:37;100705.50;;;15.46;85.67
56040;BME280;43937;41.366;2.072;2023-11-21T07:24:10;100724.84;;;15.38;88.88
56040;BME280;43937;41.366;2.072;2023-11-21T07:26:36;100702.78;;;15.03;89.20
56040;BME280;43937;41.366;2.072;2023-11-21T07:29:02;100737.84;;;15.57;87.26
56040;BME280;43937;41.366;2.072;2023-11-21T07:31:28;100730.81;;;15.48;86.10
56040;BME280;43937;41.366;2.072;2023-11-21T07:37:34;100749.00;;;15.49;86.65
56040;BME280;43937;41.366;2.072;2023-11-21T07:40:55;100616.97;;;15.31;83.01
56040;BME280;43937;41.366;2.072;2023-11-21T07:43:20;100721.50;;;16.06;81.87
56040;BME280;43937;41.366;2.072;2023-11-21T07:47:20;100737.28;;;15.97;83.78
56040;BME280;43937;41.366;2.072;2023-11-21T07:56:52;100735.91;;;16.14;81.61
56040;BME280;43937;41.366;2.072;2023-11-21T08:08:23;100781.78;;;16.62;77.21
56040;BME280;43937;41.366;2.072;2023-11-21T08:13:43;100770.84;;;16.75;75.80
56040;BME280;43937;41.366;2.072;2023-11-21T08:26:55;100763.38;;;17.44;71.46
56040;BME280;43937;41.366;2.072;2023-11-21T08:29:20;100753.00;;;17.32;71.49
56040;BME280;43937;41.366;2.072;2023-11-21T08:33:25;100763.56;;;17.69;70.48
56040;BME280;43937;41.366;2.072;2023-11-21T08:38:47;100750.03;;;17.74;69.59
56040;BME280;43937;41.366;2.072;2023-11-21T08:41:14;100748.13;;;17.74;69.37
56040;BME280;43937;41.366;2.072;2023-11-21T08:46:22;100784.75;;;17.55;70.00
56040;BME280;43937;41.366;2.072;2023-11-21T08:52:50;100759.56;;;17.31;67.67
56040;BME280;43937;41.366;2.072;2023-11-21T08:55:16;100763.78;;;17.54;66.49
56040;BME280;43937;41.366;2.072;2023-11-21T09:00:58;100779.50;;;17.80;64.86
56040;BME280;43937;41.366;2.072;2023-11-21T09:05:57;100791.53;;;17.99;63.94
56040;BME280;43937;41.366;2.072;2023-11-21T09:10:58;100773.97;;;17.47;66.42
56040;BME280;43937;41.366;2.072;2023-11-21T09:13:23;100789.63;;;17.53;66.31
56040;BME280;43937;41.366;2.072;2023-11-21T09:15:50;100781.78;;;17.36;67.04
56040;BME280;43937;41.366;2.072;2023-11-21T09:18:16;100786.84;;;17.39;67.62
56040;BME280;43937;41.366;2.072;2023-11-21T09:20:42;100789.63;;;17.53;68.06
56040;BME280;43937;41.366;2.072;2023-11-21T09:23:56;100788.78;;;17.59;67.25
56040;BME280;43937;41.366;2.072;2023-11-21T09:28:33;100787.53;;;17.95;66.80
56040;BME280;43937;41.366;2.072;2023-11-21T09:36:28;100763.16;;;17.98;63.72
56040;BME280;43937;41.366;2.072;2023-11-21T09:39:35;100772.66;;;18.16;61.07
56040;BME280;43937;41.366;2.072;2023-11-21T09:42:13;100776.00;;;18.24;59.66
56040;BME280;43937;41.366;2.072;2023-11-21T09:46:27;100745.13;;;18.61;55.05
56040;BME280;43937;41.366;2.072;2023-11-21T09:48:54;100767.63;;;18.51;53.38
56040;BME280;43937;41.366;2.072;2023-11-21T09:57:59;100754.91;;;17.92;49.10
56040;BME280;43937;41.366;2.072;2023-11-21T10:02:59;100737.94;;;17.95;47.36
56040;BME280;43937;41.366;2.072;2023-11-21T10:05:25;100752.50;;;18.15;47.24
56040;BME280;43937;41.366;2.072;2023-11-21T10:07:52;100753.53;;;18.27;47.02
56040;BME280;43937;41.366;2.072;2023-11-21T10:12:06;100722.19;;;18.22;47.18
56040;BME280;43937;41.366;2.072;2023-11-21T10:25:57;100716.25;;;18.76;46.72
56040;BME280;43937;41.366;2.072;2023-11-21T10:28:40;100733.47;;;18.97;46.35
56040;BME280;43937;41.366;2.072;2023-11-21T10:31:06;100718.72;;;18.85;46.10
56040;BME280;43937;41.366;2.072;2023-11-21T10:35:58;100728.31;;;18.82;44.26
56040;BME280;43937;41.366;2.072;2023-11-21T10:39:25;100723.78;;;18.88;44.13
56040;BME280;43937;41.366;2.072;2023-11-21T10:41:56;100729.38;;;19.06;43.59
56040;BME280;43937;41.366;2.072;2023-11-21T10:45:17;100733.03;;;19.32;44.04
56040;BME280;43937;41.366;2.072;2023-11-21T10:51:10;100700.63;;;18.95;42.31
56040;BME280;43937;41.366;2.072;2023-11-21T10:59:14;100712.50;;;18.96;41.21
56040;BME280;43937;41.366;2.072;2023-11-21T11:04:48;100726.81;;;19.11;41.42
56040;BME280;43937;41.366;2.072;2023-11-21T11:10:41;100685.22;;;18.81;41.03
56040;BME280;43937;41.366;2.072;2023-11-21T11:13:07;100693.59;;;18.99;41.35
56040;BME280;43937;41.366;2.072;2023-11-21T11:17:15;100676.09;;;19.37;40.46
56040;BME280;43937;41.366;2.072;2023-11-21T11:31:58;100658.09;;;19.53;40.21
56040;BME280;43937;41.366;2.072;2023-11-21T11:34:37;100666.22;;;19.48;39.70
56040;BME280;43937;41.366;2.072;2023-11-21T11:38:11;100641.59;;;19.72;39.61
56040;BME280;43937;41.366;2.072;2023-11-21T11:54:01;100648.19;;;19.71;40.46
56040;BME280;43937;41.366;2.072;2023-11-21T12:01:46;100608.31;;;19.85;41.43
56040;BME280;43937;41.366;2.072;2023-11-21T12:10:16;100619.84;;;20.12;41.77
56040;BME280;43937;41.366;2.072;2023-11-21T12:15:22;100610.50;;;19.95;41.86
56040;BME280;43937;41.366;2.072;2023-11-21T12:20:19;100594.97;;;20.12;41.69
56040;BME280;43937;41.366;2.072;2023-11-21T12:25:12;100572.16;;;20.17;40.92
56040;BME280;43937;41.366;2.072;2023-11-21T12:27:42;100573.16;;;20.22;41.53
56040;BME280;43937;41.366;2.072;2023-11-21T12:34:48;100595.38;;;20.16;43.74
56040;BME280;43937;41.366;2.072;2023-11-21T12:37:14;100580.94;;;20.13;43.36
56040;BME280;43937;41.366;2.072;2023-11-21T12:41:33;100601.69;;;19.86;44.33
56040;BME280;43937;41.366;2.072;2023-11-21T12:47:35;100595.94;;;19.69;43.45
56040;BME280;43937;41.366;2.072;2023-11-21T12:52:11;100434.09;;;19.01;43.65
56040;BME280;43937;41.366;2.072;2023-11-21T12:55:55;100577.75;;;19.98;45.26
56040;BME280;43937;41.366;2.072;2023-11-21T12:58:24;100565.69;;;19.93;45.63
56040;BME280;43937;41.366;2.072;2023-11-21T13:02:32;100577.69;;;19.86;46.25
56040;BME280;43937;41.366;2.072;2023-11-21T13:07:19;100569.03;;;20.13;44.67
56040;BME280;43937;41.366;2.072;2023-11-21T13:09:45;100541.03;;;20.09;44.69
56040;BME280;43937;41.366;2.072;2023-11-21T13:12:11;100562.84;;;19.99;44.77
56040;BME280;43937;41.366;2.072;2023-11-21T13:16:14;100557.66;;;19.73;44.99
56040;BME280;43937;41.366;2.072;2023-11-21T13:20:34;100544.31;;;19.88;44.52
56040;BME280;43937;41.366;2.072;2023-11-21T13:23:21;100566.59;;;20.05;43.94
56040;BME280;43937;41.366;2.072;2023-11-21T13:25:48;100559.28;;;20.10;44.32
56040;BME280;43937;41.366;2.072;2023-11-21T13:32:39;100546.13;;;19.94;45.06
56040;BME280;43937;41.366;2.072;2023-11-21T13:35:05;100548.00;;;19.82;45.70
56040;BME280;43937;41.366;2.072;2023-11-21T13:37:33;100544.47;;;19.75;45.60
56040;BME280;43937;41.366;2.072;2023-11-21T13:39:59;100544.38;;;19.63;46.39
56040;BME280;43937;41.366;2.072;2023-11-21T13:46:16;100535.44;;;19.67;44.88
56040;BME280;43937;41.366;2.072;2023-11-21T13:48:47;100538.66;;;19.64;44.90
56040;BME280;43937;41.366;2.072;2023-11-21T13:54:20;100505.56;;;19.21;44.46
56040;BME280;43937;41.366;2.072;2023-11-21T13:56:49;100501.06;;;19.27;44.75
56040;BME280;43937;41.366;2.072;2023-11-21T14:00:08;100520.22;;;19.58;43.78
56040;BME280;43937;41.366;2.072;2023-11-21T14:06:33;100507.94;;;18.99;44.79
56040;BME280;43937;41.366;2.072;2023-11-21T14:10:22;100506.44;;;19.21;45.60
56040;BME280;43937;41.366;2.072;2023-11-21T14:16:44;100516.31;;;19.11;45.95
56040;BME280;43937;41.366;2.072;2023-11-21T14:21:10;100513.16;;;19.26;46.28
56040;BME280;43937;41.366;2.072;2023-11-21T14:23:36;100503.72;;;19.33;46.86
56040;BME280;43937;41.366;2.072;2023-11-21T14:27:27;100487.56;;;19.37;46.98
56040;BME280;43937;41.366;2.072;2023-11-21T14:29:54;100490.00;;;19.45;46.31
56040;BME280;43937;41.366;2.072;2023-11-21T14:37:24;100491.84;;;19.70;45.23
56040;BME280;43937;41.366;2.072;2023-11-21T14:41:09;100507.00;;;19.79;44.44
56040;BME280;43937;41.366;2.072;2023-11-21T14:43:36;100501.78;;;19.89;44.11
56040;BME280;43937;41.366;2.072;2023-11-21T14:48:37;100514.50;;;19.90;43.30
56040;BME280;43937;41.366;2.072;2023-11-21T14:51:41;100506.88;;;19.74;44.04
56040;BME280;43937;41.366;2.072;2023-11-21T14:54:31;100498.22;;;19.33;44.18
56040;BME280;43937;41.366;2.072;2023-11-21T14:57:10;100501.38;;;19.37;44.51
56040;BME280;43937;41.366;2.072;2023-11-21T15:00:20;100489.72;;;19.35;45.14
56040;BME280;43937;41.366;2.072;2023-11-21T15:04:51;100480.25;;;19.42;45.62
56040;BME280;43937;41.366;2.072;2023-11-21T15:09:50;100480.34;;;19.36;45.93
56040;BME280;43937;41.366;2.072;2023-11-21T15:15:59;100494.47;;;19.28;47.29
56040;BME280;43937;41.366;2.072;2023-11-21T15:18:33;100477.84;;;19.16;47.45
56040;BME280;43937;41.366;2.072;2023-11-21T15:21:57;100491.38;;;19.36;47.16
56040;BME280;43937;41.366;2.072;2023-11-21T15:24:23;100491.19;;;19.37;47.43
56040;BME280;43937;41.366;2.072;2023-11-21T15:26:50;100470.69;;;19.27;47.24
56040;BME280;43937;41.366;2.072;2023-11-21T15:30:12;100480.78;;;19.51;46.92
56040;BME280;43937;41.366;2.072;2023-11-21T15:32:37;100467.47;;;19.48;46.80
56040;BME280;43937;41.366;2.072;2023-11-21T15:37:26;100479.38;;;19.49;45.86
56040;BME280;43937;41.366;2.072;2023-11-21T15:42:40;100438.66;;;19.44;45.83
56040;BME280;43937;41.366;2.072;2023-11-21T15:45:06;100461.72;;;19.50;46.05
56040;BME280;43937;41.366;2.072;2023-11-21T15:47:33;100472.22;;;19.41;47.07
56040;BME280;43937;41.366;2.072;2023-11-21T15:50:41;100471.03;;;19.18;47.79
56040;BME280;43937;41.366;2.072;2023-11-21T15:53:06;100462.72;;;19.00;48.61
56040;BME280;43937;41.366;2.072;2023-11-21T15:55:32;100467.16;;;18.83;49.74
56040;BME280;43937;41.366;2.072;2023-11-21T15:57:59;100474.16;;;18.85;50.54
56040;BME280;43937;41.366;2.072;2023-11-21T16:00:27;100475.91;;;18.80;51.45
56040;BME280;43937;41.366;2.072;2023-11-21T16:02:52;100470.97;;;18.57;52.12
56040;BME280;43937;41.366;2.072;2023-11-21T16:07:24;100464.78;;;18.36;53.10
56040;BME280;43937;41.366;2.072;2023-11-21T16:14:13;100438.84;;;17.94;54.73
56040;BME280;43937;41.366;2.072;2023-11-21T16:17:59;100448.63;;;17.90;56.21
56040;BME280;43937;41.366;2.072;2023-11-21T16:20:24;100456.09;;;17.82;56.98
56040;BME280;43937;41.366;2.072;2023-11-21T16:25:27;100390.50;;;17.34;57.86
56040;BME280;43937;41.366;2.072;2023-11-21T16:29:41;100447.25;;;17.60;58.13
56040;BME280;43937;41.366;2.072;2023-11-21T16:32:07;100448.56;;;17.58;58.08
56040;BME280;43937;41.366;2.072;2023-11-21T16:37:21;100456.09;;;17.31;59.98
56040;BME280;43937;41.366;2.072;2023-11-21T16:39:47;100448.25;;;17.34;59.27
56040;BME280;43937;41.366;2.072;2023-11-21T16:42:12;100466.66;;;17.40;59.58
56040;BME280;43937;41.366;2.072;2023-11-21T16:47:04;100469.19;;;17.35;59.99
56040;BME280;43937;41.366;2.072;2023-11-21T16:50:44;100466.03;;;17.32;59.94
56040;BME280;43937;41.366;2.072;2023-11-21T16:55:20;100440.88;;;17.28;59.99
56040;BME280;43937;41.366;2.072;2023-11-21T17:07:56;100449.50;;;17.38;58.87
56040;BME280;43937;41.366;2.072;2023-11-21T17:10:22;100463.06;;;17.40;58.42
56040;BME280;43937;41.366;2.072;2023-11-21T17:12:47;100471.47;;;17.45;58.43
56040;BME280;43937;41.366;2.072;2023-11-21T17:18:25;100468.59;;;17.27;58.03
56040;BME280;43937;41.366;2.072;2023-11-21T17:20:50;100487.22;;;17.18;58.48
56040;BME280;43937;41.366;2.072;2023-11-21T17:24:33;100474.38;;;17.05;59.31
56040;BME280;43937;41.366;2.072;2023-11-21T17:30:38;100483.34;;;17.39;58.40
56040;BME280;43937;41.366;2.072;2023-11-21T17:33:03;100489.47;;;17.48;57.95
56040;BME280;43937;41.366;2.072;2023-11-21T17:46:19;100493.00;;;17.55;57.10
56040;BME280;43937;41.366;2.072;2023-11-21T17:55:06;100503.88;;;17.36;57.80
56040;BME280;43937;41.366;2.072;2023-11-21T17:58:15;100504.38;;;17.20;57.95
56040;BME280;43937;41.366;2.072;2023-11-21T18:00:41;100504.38;;;17.20;58.45
56040;BME280;43937;41.366;2.072;2023-11-21T18:03:06;100519.59;;;17.23;58.47
56040;BME280;43937;41.366;2.072;2023-11-21T18:06:31;100506.47;;;17.31;58.17
56040;BME280;43937;41.366;2.072;2023-11-21T18:08:58;100503.91;;;17.30;58.07
56040;BME280;43937;41.366;2.072;2023-11-21T18:11:24;100535.44;;;17.40;57.51
56040;BME280;43937;41.366;2.072;2023-11-21T18:13:50;100528.66;;;17.36;57.80
56040;BME280;43937;41.366;2.072;2023-11-21T18:16:15;100514.72;;;17.31;57.72
56040;BME280;43937;41.366;2.072;2023-11-21T18:23:40;100527.19;;;17.27;57.58
56040;BME280;43937;41.366;2.072;2023-11-21T18:27:51;100523.44;;;17.22;57.60
56040;BME280;43937;41.366;2.072;2023-11-21T18:33:13;100512.91;;;16.99;57.86
56040;BME280;43937;41.366;2.072;2023-11-21T18:40:32;100536.97;;;16.63;54.95
56040;BME280;43937;41.366;2.072;2023-11-21T18:50:53;100541.41;;;16.51;53.68
56040;BME280;43937;41.366;2.072;2023-11-21T18:55:24;100527.69;;;16.38;53.32
56040;BME280;43937;41.366;2.072;2023-11-21T18:57:50;100533.38;;;16.43;53.29
56040;BME280;43937;41.366;2.072;2023-11-21T19:09:32;100544.59;;;16.28;53.29
56040;BME280;43937;41.366;2.072;2023-11-21T19:12:00;100549.19;;;16.14;52.98
56040;BME280;43937;41.366;2.072;2023-11-21T19:17:57;100544.53;;;16.08;53.52
56040;BME280;43937;41.366;2.072;2023-11-21T19:20:35;100544.53;;;16.15;52.85
56040;BME280;43937;41.366;2.072;2023-11-21T19:26:15;100549.19;;;16.01;52.85
56040;BME280;43937;41.366;2.072;2023-11-21T19:28:41;100553.78;;;16.00;52.79
56040;BME280;43937;41.366;2.072;2023-11-21T19:31:14;100554.69;;;16.08;52.84
56040;BME280;43937;41.366;2.072;2023-11-21T19:33:40;100564.81;;;16.07;52.81
56040;BME280;43937;41.366;2.072;2023-11-21T19:44:15;100564.34;;;16.03;52.92
56040;BME280;43937;41.366;2.072;2023-11-21T19:46:41;100573.72;;;16.16;52.12
56040;BME280;43937;41.366;2.072;2023-11-21T19:51:33;100581.97;;;16.16;51.96
56040;BME280;43937;41.366;2.072;2023-11-21T20:01:42;100606.44;;;16.11;51.93
56040;BME280;43937;41.366;2.072;2023-11-21T20:06:39;100620.28;;;15.89;51.93
56040;BME280;43937;41.366;2.072;2023-11-21T20:09:14;100615.41;;;15.85;51.33
56040;BME280;43937;41.366;2.072;2023-11-21T20:12:52;100557.91;;;15.70;49.63
56040;BME280;43937;41.366;2.072;2023-11-21T20:16:24;100594.78;;;16.09;48.25
56040;BME280;43937;41.366;2.072;2023-11-21T20:20:29;100615.50;;;16.11;49.20
56040;BME280;43937;41.366;2.072;2023-11-21T20:24:05;100627.41;;;16.32;49.05
56040;BME280;43937;41.366;2.072;2023-11-21T20:28:57;100625.91;;;16.29;49.42
56040;BME280;43937;41.366;2.072;2023-11-21T20:31:25;100618.94;;;16.33;48.76
56040;BME280;43937;41.366;2.072;2023-11-21T20:36:22;100610.09;;;16.44;47.29
56040;BME280;43937;41.366;2.072;2023-11-21T20:38:48;100657.06;;;16.69;46.71
56040;BME280;43937;41.366;2.072;2023-11-21T20:44:26;100657.28;;;16.75;46.19
56040;BME280;43937;41.366;2.072;2023-11-21T20:48:23;100637.81;;;16.63;46.33
56040;BME280;43937;41.366;2.072;2023-11-21T20:58:56;100669.28;;;15.92;50.63
56040;BME280;43937;41.366;2.072;2023-11-21T21:01:22;100657.28;;;15.65;50.83
56040;BME280;43937;41.366;2.072;2023-11-21T21:11:02;100626.03;;;15.03;51.13
56040;BME280;43937;41.366;2.072;2023-11-21T21:13:28;100660.16;;;15.22;50.75
56040;BME280;43937;41.366;2.072;2023-11-21T21:17:58;100663.53;;;15.24;48.48
56040;BME280;43937;41.366;2.072;2023-11-21T21:21:06;100606.34;;;15.21;45.46
56040;BME280;43937;41.366;2.072;2023-11-21T21:25:45;100653.78;;;15.78;45.31
56040;BME280;43937;41.366;2.072;2023-11-21T21:28:46;100658.47;;;15.84;45.53
56040;BME280;43937;41.366;2.072;2023-11-21T21:33:43;100663.53;;;15.80;44.41
56040;BME280;43937;41.366;2.072;2023-11-21T21:36:43;100680.50;;;15.97;43.57
56040;BME280;43937;41.366;2.072;2023-11-21T21:40:40;100633.56;;;15.51;43.75
56040;BME280;43937;41.366;2.072;2023-11-21T21:50:21;100657.47;;;15.64;43.21
56040;BME280;43937;41.366;2.072;2023-11-21T21:53:36;100639.28;;;15.56;42.63
56040;BME280;43937;41.366;2.072;2023-11-21T21:59:19;100677.00;;;15.75;43.01
56040;BME280;43937;41.366;2.072;2023-11-21T22:08:09;100687.34;;;15.73;43.50
56040;BME280;43937;41.366;2.072;2023-11-21T22:13:36;100683.50;;;15.68;44.20
56040;BME280;43937;41.366;2.072;2023-11-21T22:26:37;100675.28;;;15.68;44.70
56040;BME280;43937;41.366;2.072;2023-11-21T22:29:49;100659.53;;;15.55;44.83
56040;BME280;43937;41.366;2.072;2023-11-21T22:33:44;100677.03;;;15.54;45.42
56040;BME280;43937;41.366;2.072;2023-11-21T22:36:58;100701.88;;;15.46;45.50
56040;BME280;43937;41.366;2.072;2023-11-21T22:49:52;100669.31;;;15.36;46.00
56040;BME280;43937;41.366;2.072;2023-11-21T22:52:19;100679.66;;;15.34;46.39
56040;BME280;43937;41.366;2.072;2023-11-21T22:55:02;100684.44;;;15.25;46.53
56040;BME280;43937;41.366;2.072;2023-11-21T22:58:08;100684.88;;;15.29;46.87
56040;BME280;43937;41.366;2.072;2023-11-21T23:01:08;100677.00;;;15.19;46.97
56040;BME280;43937;41.366;2.072;2023-11-21T23:04:41;100654.97;;;15.06;46.96
56040;BME280;43937;41.366;2.072;2023-11-21T23:09:14;100676.13;;;15.19;47.24
56040;BME280;43937;41.366;2.072;2023-11-21T23:11:41;100672.91;;;15.08;46.94
56040;BME280;43937;41.366;2.072;2023-11-21T23:18:25;100663.50;;;15.18;47.20
56040;BME280;43937;41.366;2.072;2023-11-21T23:20:56;100643.84;;;14.86;47.98
56040;BME280;43937;41.366;2.072;2023-11-21T23:27:08;100670.56;;;15.05;47.65
56040;BME280;43937;41.366;2.072;2023-11-21T23:33:13;100629.03;;;14.80;48.10
56040;BME280;43937;41.366;2.072;2023-11-21T23:37:15;100621.84;;;14.58;48.76